sensor_id;sensor_type;location;lat;lon;timestamp;P1;durP1;ratioP1;P2;durP2;ratioP2
16407;SDS011;8313;49.894;8.084;2022-11-09T00:00:50;3.40;;;2.00;;
16407;SDS011;8313;49.894;8.084;2022-11-09T00:03:17;3.10;;;1.90;;
16407;SDS011;8313;49.894;8.084;2022-11-09T00:05:43;1.90;;;1.77;;
16407;SDS011;8313;49.894;8.084;2022-11-09T00:08:18;2.20;;;2.10;;
16407;SDS011;8313;49.894;8.084;2022-11-09T00:10:43;1.70;;;1.60;;
16407;SDS011;8313;49.894;8.084;2022-11-09T00:13:09;2.30;;;2.10;;
16407;SDS011;8313;49.894;8.084;2022-11-09T00:15:35;4.17;;;2.00;;
16407;SDS011;8313;49.894;8.084;2022-11-09T00:18:00;2.30;;;2.10;;
16407;SDS011;8313;49.894;8.084;2022-11-09T00:20:27;2.10;;;1.90;;
16407;SDS011;8313;49.894;8.084;2022-11-09T00:22:52;1.80;;;1.70;;
16407;SDS011;8313;49.894;8.084;2022-11-09T00:25:18;3.43;;;1.77;;
16407;SDS011;8313;49.894;8.084;2022-11-09T00:27:44;2.50;;;2.27;;
16407;SDS011;8313;49.894;8.084;2022-11-09T00:30:10;3.90;;;2.23;;
16407;SDS011;8313;49.894;8.084;2022-11-09T00:32:36;2.60;;;2.40;;
16407;SDS011;8313;49.894;8.084;2022-11-09T00:35:02;2.00;;;1.90;;
16407;SDS011;8313;49.894;8.084;2022-11-09T00:37:28;2.10;;;1.90;;
16407;SDS011;8313;49.894;8.084;2022-11-09T00:39:54;3.17;;;2.37;;
16407;SDS011;8313;49.894;8.084;2022-11-09T00:42:19;3.97;;;1.97;;
16407;SDS011;8313;49.894;8.084;2022-11-09T00:44:45;1.67;;;1.57;;
16407;SDS011;8313;49.894;8.084;2022-11-09T00:47:11;3.17;;;2.27;;
16407;SDS011;8313;49.894;8.084;2022-11-09T00:49:37;4.67;;;2.00;;
16407;SDS011;8313;49.894;8.084;2022-11-09T00:52:03;2.50;;;2.30;;
16407;SDS011;8313;49.894;8.084;2022-11-09T00:54:28;2.20;;;2.00;;
16407;SDS011;8313;49.894;8.084;2022-11-09T00:56:54;1.77;;;1.67;;
16407;SDS011;8313;49.894;8.084;2022-11-09T00:59:20;2.30;;;2.10;;
16407;SDS011;8313;49.894;8.084;2022-11-09T01:01:46;3.60;;;1.83;;
16407;SDS011;8313;49.894;8.084;2022-11-09T01:04:12;1.70;;;1.60;;
16407;SDS011;8313;49.894;8.084;2022-11-09T01:06:37;3.10;;;2.90;;
16407;SDS011;8313;49.894;8.084;2022-11-09T01:09:03;2.07;;;1.87;;
16407;SDS011;8313;49.894;8.084;2022-11-09T01:11:29;2.10;;;1.90;;
16407;SDS011;8313;49.894;8.084;2022-11-09T01:13:54;2.60;;;2.40;;
16407;SDS011;8313;49.894;8.084;2022-11-09T01:16:24;2.03;;;1.93;;
16407;SDS011;8313;49.894;8.084;2022-11-09T01:18:51;2.10;;;1.90;;
16407;SDS011;8313;49.894;8.084;2022-11-09T01:21:18;2.20;;;1.50;;
16407;SDS011;8313;49.894;8.084;2022-11-09T01:23:44;1.67;;;1.57;;
16407;SDS011;8313;49.894;8.084;2022-11-09T01:26:11;2.00;;;1.90;;
16407;SDS011;8313;49.894;8.084;2022-11-09T01:28:38;2.63;;;2.43;;
16407;SDS011;8313;49.894;8.084;2022-11-09T01:31:05;1.80;;;1.60;;
16407;SDS011;8313;49.894;8.084;2022-11-09T01:33:34;4.23;;;1.63;;
16407;SDS011;8313;49.894;8.084;2022-11-09T01:36:02;2.73;;;1.73;;
16407;SDS011;8313;49.894;8.084;2022-11-09T01:38:32;2.03;;;1.50;;
16407;SDS011;8313;49.894;8.084;2022-11-09T01:40:59;2.40;;;2.23;;
16407;SDS011;8313;49.894;8.084;2022-11-09T01:43:25;2.40;;;2.00;;
16407;SDS011;8313;49.894;8.084;2022-11-09T01:48:54;1.87;;;1.57;;
16407;SDS011;8313;49.894;8.084;2022-11-09T01:53:57;3.40;;;3.17;;
16407;SDS011;8313;49.894;8.084;2022-11-09T01:56:26;3.50;;;2.00;;
16407;SDS011;8313;49.894;8.084;2022-11-09T01:58:56;2.50;;;2.07;;
16407;SDS011;8313;49.894;8.084;2022-11-09T02:01:27;2.13;;;1.93;;
16407;SDS011;8313;49.894;8.084;2022-11-09T02:04:16;2.77;;;2.47;;
16407;SDS011;8313;49.894;8.084;2022-11-09T02:06:44;2.40;;;2.20;;
16407;SDS011;8313;49.894;8.084;2022-11-09T02:09:16;2.70;;;1.87;;
16407;SDS011;8313;49.894;8.084;2022-11-09T02:11:51;2.17;;;1.63;;
16407;SDS011;8313;49.894;8.084;2022-11-09T02:14:17;2.63;;;2.00;;
16407;SDS011;8313;49.894;8.084;2022-11-09T02:16:45;2.43;;;1.80;;
16407;SDS011;8313;49.894;8.084;2022-11-09T02:19:12;2.57;;;2.30;;
16407;SDS011;8313;49.894;8.084;2022-11-09T02:21:38;1.63;;;1.53;;
16407;SDS011;8313;49.894;8.084;2022-11-09T02:24:04;2.73;;;1.80;;
16407;SDS011;8313;49.894;8.084;2022-11-09T02:29:04;1.57;;;1.47;;
16407;SDS011;8313;49.894;8.084;2022-11-09T02:31:34;1.80;;;1.70;;
16407;SDS011;8313;49.894;8.084;2022-11-09T02:34:05;1.70;;;1.60;;
16407;SDS011;8313;49.894;8.084;2022-11-09T02:36:37;1.93;;;1.77;;
16407;SDS011;8313;49.894;8.084;2022-11-09T02:39:07;1.70;;;1.60;;
16407;SDS011;8313;49.894;8.084;2022-11-09T02:41:33;1.60;;;1.50;;
16407;SDS011;8313;49.894;8.084;2022-11-09T02:44:05;4.07;;;1.80;;
16407;SDS011;8313;49.894;8.084;2022-11-09T02:46:32;1.50;;;1.40;;
16407;SDS011;8313;49.894;8.084;2022-11-09T02:49:00;2.13;;;1.83;;
16407;SDS011;8313;49.894;8.084;2022-11-09T02:51:26;1.73;;;1.63;;
16407;SDS011;8313;49.894;8.084;2022-11-09T02:53:52;1.30;;;1.20;;
16407;SDS011;8313;49.894;8.084;2022-11-09T02:56:20;1.43;;;1.33;;
16407;SDS011;8313;49.894;8.084;2022-11-09T02:58:46;1.60;;;1.50;;
16407;SDS011;8313;49.894;8.084;2022-11-09T03:01:12;1.50;;;1.33;;
16407;SDS011;8313;49.894;8.084;2022-11-09T03:03:38;1.80;;;1.67;;
16407;SDS011;8313;49.894;8.084;2022-11-09T03:06:04;1.63;;;1.53;;
16407;SDS011;8313;49.894;8.084;2022-11-09T03:08:30;1.60;;;1.50;;
16407;SDS011;8313;49.894;8.084;2022-11-09T03:10:58;1.33;;;1.23;;
16407;SDS011;8313;49.894;8.084;2022-11-09T03:13:24;1.50;;;1.40;;
16407;SDS011;8313;49.894;8.084;2022-11-09T03:15:50;1.40;;;1.30;;
16407;SDS011;8313;49.894;8.084;2022-11-09T03:18:16;1.07;;;1.00;;
16407;SDS011;8313;49.894;8.084;2022-11-09T03:20:41;1.50;;;1.40;;
16407;SDS011;8313;49.894;8.084;2022-11-09T03:23:07;4.00;;;1.30;;
16407;SDS011;8313;49.894;8.084;2022-11-09T03:25:36;1.20;;;1.17;;
16407;SDS011;8313;49.894;8.084;2022-11-09T03:28:04;3.43;;;1.40;;
16407;SDS011;8313;49.894;8.084;2022-11-09T03:30:31;1.40;;;1.30;;
16407;SDS011;8313;49.894;8.084;2022-11-09T03:32:58;1.20;;;1.10;;
16407;SDS011;8313;49.894;8.084;2022-11-09T03:35:25;1.17;;;1.10;;
16407;SDS011;8313;49.894;8.084;2022-11-09T03:37:51;1.20;;;1.10;;
16407;SDS011;8313;49.894;8.084;2022-11-09T03:40:18;1.93;;;1.17;;
16407;SDS011;8313;49.894;8.084;2022-11-09T03:42:46;1.40;;;1.30;;
16407;SDS011;8313;49.894;8.084;2022-11-09T03:45:13;2.00;;;1.37;;
16407;SDS011;8313;49.894;8.084;2022-11-09T03:47:41;1.17;;;1.00;;
16407;SDS011;8313;49.894;8.084;2022-11-09T03:50:08;1.30;;;1.20;;
16407;SDS011;8313;49.894;8.084;2022-11-09T03:52:34;1.37;;;1.27;;
16407;SDS011;8313;49.894;8.084;2022-11-09T03:55:00;1.30;;;1.20;;
16407;SDS011;8313;49.894;8.084;2022-11-09T03:57:26;1.70;;;1.60;;
16407;SDS011;8313;49.894;8.084;2022-11-09T03:59:52;1.73;;;1.10;;
16407;SDS011;8313;49.894;8.084;2022-11-09T04:02:18;1.43;;;1.33;;
16407;SDS011;8313;49.894;8.084;2022-11-09T04:04:43;1.60;;;1.50;;
16407;SDS011;8313;49.894;8.084;2022-11-09T04:07:09;1.93;;;1.13;;
16407;SDS011;8313;49.894;8.084;2022-11-09T04:09:35;1.67;;;1.57;;
16407;SDS011;8313;49.894;8.084;2022-11-09T04:12:01;2.20;;;1.57;;
16407;SDS011;8313;49.894;8.084;2022-11-09T04:14:27;1.40;;;1.30;;
16407;SDS011;8313;49.894;8.084;2022-11-09T04:16:53;1.50;;;1.40;;
16407;SDS011;8313;49.894;8.084;2022-11-09T04:19:19;2.20;;;1.57;;
16407;SDS011;8313;49.894;8.084;2022-11-09T04:21:44;1.30;;;1.23;;
16407;SDS011;8313;49.894;8.084;2022-11-09T04:24:10;0.93;;;0.93;;
16407;SDS011;8313;49.894;8.084;2022-11-09T04:26:35;1.20;;;1.10;;
16407;SDS011;8313;49.894;8.084;2022-11-09T04:29:01;1.20;;;1.10;;
16407;SDS011;8313;49.894;8.084;2022-11-09T04:31:27;1.33;;;1.23;;
16407;SDS011;8313;49.894;8.084;2022-11-09T04:33:53;1.20;;;1.20;;
16407;SDS011;8313;49.894;8.084;2022-11-09T04:36:19;1.13;;;1.13;;
16407;SDS011;8313;49.894;8.084;2022-11-09T04:38:45;1.30;;;1.20;;
16407;SDS011;8313;49.894;8.084;2022-11-09T04:41:11;2.90;;;1.97;;
16407;SDS011;8313;49.894;8.084;2022-11-09T04:43:36;4.03;;;1.50;;
16407;SDS011;8313;49.894;8.084;2022-11-09T04:46:02;1.30;;;1.20;;
16407;SDS011;8313;49.894;8.084;2022-11-09T04:48:31;1.60;;;1.50;;
16407;SDS011;8313;49.894;8.084;2022-11-09T04:51:05;1.40;;;1.30;;
16407;SDS011;8313;49.894;8.084;2022-11-09T04:53:32;2.00;;;1.27;;
16407;SDS011;8313;49.894;8.084;2022-11-09T04:55:59;1.47;;;1.37;;
16407;SDS011;8313;49.894;8.084;2022-11-09T04:58:24;1.43;;;1.33;;
16407;SDS011;8313;49.894;8.084;2022-11-09T05:00:51;1.47;;;1.37;;
16407;SDS011;8313;49.894;8.084;2022-11-09T05:03:17;1.53;;;1.43;;
16407;SDS011;8313;49.894;8.084;2022-11-09T05:05:43;1.80;;;1.70;;
16407;SDS011;8313;49.894;8.084;2022-11-09T05:08:09;1.60;;;1.50;;
16407;SDS011;8313;49.894;8.084;2022-11-09T05:10:35;4.10;;;1.70;;
16407;SDS011;8313;49.894;8.084;2022-11-09T05:13:02;2.40;;;1.77;;
16407;SDS011;8313;49.894;8.084;2022-11-09T05:15:29;2.10;;;1.90;;
16407;SDS011;8313;49.894;8.084;2022-11-09T05:17:55;1.83;;;1.60;;
16407;SDS011;8313;49.894;8.084;2022-11-09T05:20:21;1.70;;;1.60;;
16407;SDS011;8313;49.894;8.084;2022-11-09T05:22:47;1.57;;;1.47;;
16407;SDS011;8313;49.894;8.084;2022-11-09T05:25:32;2.40;;;1.93;;
16407;SDS011;8313;49.894;8.084;2022-11-09T05:27:58;1.60;;;1.50;;
16407;SDS011;8313;49.894;8.084;2022-11-09T05:30:24;1.70;;;1.60;;
16407;SDS011;8313;49.894;8.084;2022-11-09T05:32:50;1.70;;;1.60;;
16407;SDS011;8313;49.894;8.084;2022-11-09T05:35:15;1.63;;;1.53;;
16407;SDS011;8313;49.894;8.084;2022-11-09T05:37:41;1.37;;;1.27;;
16407;SDS011;8313;49.894;8.084;2022-11-09T05:40:10;2.33;;;2.07;;
16407;SDS011;8313;49.894;8.084;2022-11-09T05:42:39;1.90;;;1.80;;
16407;SDS011;8313;49.894;8.084;2022-11-09T05:45:06;2.30;;;2.10;;
16407;SDS011;8313;49.894;8.084;2022-11-09T05:47:35;2.20;;;2.00;;
16407;SDS011;8313;49.894;8.084;2022-11-09T05:50:03;2.17;;;1.90;;
16407;SDS011;8313;49.894;8.084;2022-11-09T05:52:30;2.07;;;1.80;;
16407;SDS011;8313;49.894;8.084;2022-11-09T05:54:55;1.77;;;1.67;;
16407;SDS011;8313;49.894;8.084;2022-11-09T05:57:21;2.53;;;2.30;;
16407;SDS011;8313;49.894;8.084;2022-11-09T05:59:47;2.90;;;2.30;;
16407;SDS011;8313;49.894;8.084;2022-11-09T06:02:12;2.00;;;1.67;;
16407;SDS011;8313;49.894;8.084;2022-11-09T06:04:38;2.20;;;1.93;;
16407;SDS011;8313;49.894;8.084;2022-11-09T06:07:04;1.80;;;1.70;;
16407;SDS011;8313;49.894;8.084;2022-11-09T06:09:29;2.10;;;1.90;;
16407;SDS011;8313;49.894;8.084;2022-11-09T06:11:55;2.30;;;2.10;;
16407;SDS011;8313;49.894;8.084;2022-11-09T06:14:20;2.17;;;2.00;;
16407;SDS011;8313;49.894;8.084;2022-11-09T06:16:46;1.80;;;1.70;;
16407;SDS011;8313;49.894;8.084;2022-11-09T06:19:12;4.00;;;1.90;;
16407;SDS011;8313;49.894;8.084;2022-11-09T06:21:40;3.37;;;2.47;;
16407;SDS011;8313;49.894;8.084;2022-11-09T06:24:06;2.83;;;2.47;;
16407;SDS011;8313;49.894;8.084;2022-11-09T06:26:31;2.30;;;2.20;;
16407;SDS011;8313;49.894;8.084;2022-11-09T06:28:57;2.20;;;2.00;;
16407;SDS011;8313;49.894;8.084;2022-11-09T06:31:23;2.83;;;2.10;;
16407;SDS011;8313;49.894;8.084;2022-11-09T06:33:48;2.67;;;2.40;;
16407;SDS011;8313;49.894;8.084;2022-11-09T06:36:15;3.33;;;2.30;;
16407;SDS011;8313;49.894;8.084;2022-11-09T06:38:40;1.90;;;1.80;;
16407;SDS011;8313;49.894;8.084;2022-11-09T06:41:07;2.17;;;1.97;;
16407;SDS011;8313;49.894;8.084;2022-11-09T06:43:33;3.83;;;2.43;;
16407;SDS011;8313;49.894;8.084;2022-11-09T06:46:01;2.03;;;1.90;;
16407;SDS011;8313;49.894;8.084;2022-11-09T06:48:28;3.13;;;2.10;;
16407;SDS011;8313;49.894;8.084;2022-11-09T06:50:53;2.43;;;2.23;;
16407;SDS011;8313;49.894;8.084;2022-11-09T06:53:24;2.60;;;2.33;;
16407;SDS011;8313;49.894;8.084;2022-11-09T06:55:51;2.27;;;2.10;;
16407;SDS011;8313;49.894;8.084;2022-11-09T06:58:17;4.17;;;2.67;;
16407;SDS011;8313;49.894;8.084;2022-11-09T07:00:43;3.33;;;2.50;;
16407;SDS011;8313;49.894;8.084;2022-11-09T07:03:16;3.20;;;3.00;;
16407;SDS011;8313;49.894;8.084;2022-11-09T07:05:43;2.50;;;2.30;;
16407;SDS011;8313;49.894;8.084;2022-11-09T07:08:09;3.30;;;3.00;;
16407;SDS011;8313;49.894;8.084;2022-11-09T07:10:35;5.10;;;3.30;;
16407;SDS011;8313;49.894;8.084;2022-11-09T07:13:01;3.67;;;3.33;;
16407;SDS011;8313;49.894;8.084;2022-11-09T07:15:29;4.03;;;3.50;;
16407;SDS011;8313;49.894;8.084;2022-11-09T07:17:56;4.63;;;3.73;;
16407;SDS011;8313;49.894;8.084;2022-11-09T07:20:22;3.20;;;2.90;;
16407;SDS011;8313;49.894;8.084;2022-11-09T07:22:48;4.63;;;3.40;;
16407;SDS011;8313;49.894;8.084;2022-11-09T07:25:14;3.23;;;2.93;;
16407;SDS011;8313;49.894;8.084;2022-11-09T07:27:40;4.50;;;2.67;;
16407;SDS011;8313;49.894;8.084;2022-11-09T07:30:06;4.17;;;2.97;;
16407;SDS011;8313;49.894;8.084;2022-11-09T07:32:33;2.90;;;2.60;;
16407;SDS011;8313;49.894;8.084;2022-11-09T07:34:59;2.87;;;2.67;;
16407;SDS011;8313;49.894;8.084;2022-11-09T07:37:25;3.27;;;2.37;;
16407;SDS011;8313;49.894;8.084;2022-11-09T07:39:51;2.80;;;2.60;;
16407;SDS011;8313;49.894;8.084;2022-11-09T07:42:16;3.50;;;3.20;;
16407;SDS011;8313;49.894;8.084;2022-11-09T07:44:44;3.17;;;2.77;;
16407;SDS011;8313;49.894;8.084;2022-11-09T07:47:10;3.80;;;2.80;;
16407;SDS011;8313;49.894;8.084;2022-11-09T07:49:36;5.03;;;2.50;;
16407;SDS011;8313;49.894;8.084;2022-11-09T07:52:01;6.93;;;2.73;;
16407;SDS011;8313;49.894;8.084;2022-11-09T07:54:27;3.93;;;2.63;;
16407;SDS011;8313;49.894;8.084;2022-11-09T07:56:53;2.57;;;2.37;;
16407;SDS011;8313;49.894;8.084;2022-11-09T07:59:19;3.03;;;2.60;;
16407;SDS011;8313;49.894;8.084;2022-11-09T08:01:44;2.83;;;1.90;;
16407;SDS011;8313;49.894;8.084;2022-11-09T08:04:10;3.70;;;2.50;;
16407;SDS011;8313;49.894;8.084;2022-11-09T08:06:36;2.77;;;2.43;;
16407;SDS011;8313;49.894;8.084;2022-11-09T08:09:02;2.47;;;2.10;;
16407;SDS011;8313;49.894;8.084;2022-11-09T08:11:28;2.70;;;2.00;;
16407;SDS011;8313;49.894;8.084;2022-11-09T08:13:53;3.07;;;2.60;;
16407;SDS011;8313;49.894;8.084;2022-11-09T08:16:21;3.23;;;2.77;;
16407;SDS011;8313;49.894;8.084;2022-11-09T08:18:48;4.53;;;2.70;;
16407;SDS011;8313;49.894;8.084;2022-11-09T08:21:14;2.37;;;2.17;;
16407;SDS011;8313;49.894;8.084;2022-11-09T08:23:40;2.53;;;2.17;;
16407;SDS011;8313;49.894;8.084;2022-11-09T08:26:06;2.97;;;2.47;;
16407;SDS011;8313;49.894;8.084;2022-11-09T08:28:32;2.10;;;1.90;;
16407;SDS011;8313;49.894;8.084;2022-11-09T08:31:00;2.43;;;2.00;;
16407;SDS011;8313;49.894;8.084;2022-11-09T08:33:28;3.23;;;2.57;;
16407;SDS011;8313;49.894;8.084;2022-11-09T08:35:55;6.40;;;2.50;;
16407;SDS011;8313;49.894;8.084;2022-11-09T08:38:21;2.27;;;2.17;;
16407;SDS011;8313;49.894;8.084;2022-11-09T08:40:47;2.03;;;1.93;;
16407;SDS011;8313;49.894;8.084;2022-11-09T08:43:12;1.90;;;1.80;;
16407;SDS011;8313;49.894;8.084;2022-11-09T08:45:38;3.13;;;2.03;;
16407;SDS011;8313;49.894;8.084;2022-11-09T08:48:05;2.20;;;2.00;;
16407;SDS011;8313;49.894;8.084;2022-11-09T08:50:32;2.37;;;2.17;;
16407;SDS011;8313;49.894;8.084;2022-11-09T08:52:59;1.73;;;1.63;;
16407;SDS011;8313;49.894;8.084;2022-11-09T08:55:26;1.60;;;1.50;;
16407;SDS011;8313;49.894;8.084;2022-11-09T08:57:53;1.30;;;1.20;;
16407;SDS011;8313;49.894;8.084;2022-11-09T09:00:20;2.50;;;1.30;;
16407;SDS011;8313;49.894;8.084;2022-11-09T09:02:46;1.17;;;1.10;;
16407;SDS011;8313;49.894;8.084;2022-11-09T09:05:11;1.30;;;1.20;;
16407;SDS011;8313;49.894;8.084;2022-11-09T09:07:37;1.27;;;1.17;;
16407;SDS011;8313;49.894;8.084;2022-11-09T09:10:03;1.00;;;0.80;;
16407;SDS011;8313;49.894;8.084;2022-11-09T09:12:29;1.97;;;1.37;;
16407;SDS011;8313;49.894;8.084;2022-11-09T09:14:55;3.13;;;2.37;;
16407;SDS011;8313;49.894;8.084;2022-11-09T09:17:21;3.90;;;3.50;;
16407;SDS011;8313;49.894;8.084;2022-11-09T09:19:47;3.20;;;3.00;;
16407;SDS011;8313;49.894;8.084;2022-11-09T09:22:12;8.23;;;6.23;;
16407;SDS011;8313;49.894;8.084;2022-11-09T09:24:38;8.70;;;6.60;;
16407;SDS011;8313;49.894;8.084;2022-11-09T09:27:04;12.33;;;7.93;;
16407;SDS011;8313;49.894;8.084;2022-11-09T09:29:29;16.30;;;12.20;;
16407;SDS011;8313;49.894;8.084;2022-11-09T09:31:55;17.70;;;12.63;;
16407;SDS011;8313;49.894;8.084;2022-11-09T09:34:21;13.27;;;9.23;;
16407;SDS011;8313;49.894;8.084;2022-11-09T09:36:46;10.60;;;6.60;;
16407;SDS011;8313;49.894;8.084;2022-11-09T09:39:12;4.57;;;3.23;;
16407;SDS011;8313;49.894;8.084;2022-11-09T09:44:27;2.57;;;2.20;;
16407;SDS011;8313;49.894;8.084;2022-11-09T09:47:11;1.57;;;1.47;;
16407;SDS011;8313;49.894;8.084;2022-11-09T09:55:37;3.57;;;1.03;;
16407;SDS011;8313;49.894;8.084;2022-11-09T09:58:43;4.07;;;1.37;;
16407;SDS011;8313;49.894;8.084;2022-11-09T10:01:18;3.83;;;1.50;;
16407;SDS011;8313;49.894;8.084;2022-11-09T10:03:46;1.50;;;1.30;;
16407;SDS011;8313;49.894;8.084;2022-11-09T10:09:27;2.23;;;1.77;;
16407;SDS011;8313;49.894;8.084;2022-11-09T10:12:19;2.40;;;1.20;;
16407;SDS011;8313;49.894;8.084;2022-11-09T10:15:05;1.97;;;1.30;;
16407;SDS011;8313;49.894;8.084;2022-11-09T10:17:51;1.70;;;1.60;;
16407;SDS011;8313;49.894;8.084;2022-11-09T10:23:05;2.43;;;2.23;;
16407;SDS011;8313;49.894;8.084;2022-11-09T10:25:59;3.40;;;1.90;;
16407;SDS011;8313;49.894;8.084;2022-11-09T10:28:28;3.67;;;2.53;;
16407;SDS011;8313;49.894;8.084;2022-11-09T10:30:54;1.93;;;1.83;;
16407;SDS011;8313;49.894;8.084;2022-11-09T10:33:23;2.30;;;2.07;;
16407;SDS011;8313;49.894;8.084;2022-11-09T10:36:11;1.87;;;1.77;;
16407;SDS011;8313;49.894;8.084;2022-11-09T10:38:48;1.80;;;1.70;;
16407;SDS011;8313;49.894;8.084;2022-11-09T10:41:38;1.83;;;1.60;;
16407;SDS011;8313;49.894;8.084;2022-11-09T10:44:25;2.97;;;1.53;;
16407;SDS011;8313;49.894;8.084;2022-11-09T10:47:13;6.27;;;1.80;;
16407;SDS011;8313;49.894;8.084;2022-11-09T10:50:06;1.73;;;1.63;;
16407;SDS011;8313;49.894;8.084;2022-11-09T10:59:00;1.53;;;1.43;;
16407;SDS011;8313;49.894;8.084;2022-11-09T11:01:45;1.50;;;1.40;;
16407;SDS011;8313;49.894;8.084;2022-11-09T11:04:29;2.00;;;1.90;;
16407;SDS011;8313;49.894;8.084;2022-11-09T11:07:14;3.43;;;2.20;;
16407;SDS011;8313;49.894;8.084;2022-11-09T11:15:47;3.20;;;1.47;;
16407;SDS011;8313;49.894;8.084;2022-11-09T11:18:32;2.70;;;2.00;;
16407;SDS011;8313;49.894;8.084;2022-11-09T11:21:19;1.70;;;1.60;;
16407;SDS011;8313;49.894;8.084;2022-11-09T11:27:00;2.90;;;1.70;;
16407;SDS011;8313;49.894;8.084;2022-11-09T11:29:50;5.10;;;2.37;;
16407;SDS011;8313;49.894;8.084;2022-11-09T11:32:42;2.03;;;1.83;;
16407;SDS011;8313;49.894;8.084;2022-11-09T11:38:17;4.53;;;1.67;;
16407;SDS011;8313;49.894;8.084;2022-11-09T11:50:45;50.40;;;29.27;;
16407;SDS011;8313;49.894;8.084;2022-11-09T11:56:42;38.10;;;23.33;;
16407;SDS011;8313;49.894;8.084;2022-11-09T11:59:33;40.50;;;25.70;;
16407;SDS011;8313;49.894;8.084;2022-11-09T12:05:35;17.27;;;12.90;;
16407;SDS011;8313;49.894;8.084;2022-11-09T12:24:18;3.63;;;2.40;;
16407;SDS011;8313;49.894;8.084;2022-11-09T12:30:17;4.20;;;1.77;;
16407;SDS011;8313;49.894;8.084;2022-11-09T12:33:11;1.50;;;1.40;;
16407;SDS011;8313;49.894;8.084;2022-11-09T12:36:00;1.63;;;1.53;;
16407;SDS011;8313;49.894;8.084;2022-11-09T12:38:53;2.40;;;1.80;;
16407;SDS011;8313;49.894;8.084;2022-11-09T12:41:44;4.23;;;2.00;;
16407;SDS011;8313;49.894;8.084;2022-11-09T12:44:34;1.33;;;1.27;;
16407;SDS011;8313;49.894;8.084;2022-11-09T12:47:27;2.10;;;1.37;;
16407;SDS011;8313;49.894;8.084;2022-11-09T12:50:15;1.60;;;1.50;;
16407;SDS011;8313;49.894;8.084;2022-11-09T12:53:02;4.07;;;2.20;;
16407;SDS011;8313;49.894;8.084;2022-11-09T12:55:57;1.20;;;1.20;;
16407;SDS011;8313;49.894;8.084;2022-11-09T13:02:29;3.20;;;1.40;;
16407;SDS011;8313;49.894;8.084;2022-11-09T13:08:24;2.10;;;1.73;;
16407;SDS011;8313;49.894;8.084;2022-11-09T13:11:24;1.80;;;1.20;;
16407;SDS011;8313;49.894;8.084;2022-11-09T13:14:33;2.03;;;1.40;;
16407;SDS011;8313;49.894;8.084;2022-11-09T13:26:21;38.10;;;20.17;;
16407;SDS011;8313;49.894;8.084;2022-11-09T13:34:58;39.73;;;21.30;;
16407;SDS011;8313;49.894;8.084;2022-11-09T13:55:36;4.87;;;2.10;;
16407;SDS011;8313;49.894;8.084;2022-11-09T14:01:26;1.83;;;1.10;;
16407;SDS011;8313;49.894;8.084;2022-11-09T14:16:17;4.20;;;3.00;;
16407;SDS011;8313;49.894;8.084;2022-11-09T14:19:34;1.90;;;1.53;;
16407;SDS011;8313;49.894;8.084;2022-11-09T14:22:36;1.57;;;1.20;;
16407;SDS011;8313;49.894;8.084;2022-11-09T14:25:23;1.53;;;1.13;;
16407;SDS011;8313;49.894;8.084;2022-11-09T14:34:14;2.03;;;0.90;;
16407;SDS011;8313;49.894;8.084;2022-11-09T14:36:59;1.77;;;1.10;;
16407;SDS011;8313;49.894;8.084;2022-11-09T14:39:47;3.83;;;1.33;;
16407;SDS011;8313;49.894;8.084;2022-11-09T14:42:33;2.20;;;1.27;;
16407;SDS011;8313;49.894;8.084;2022-11-09T14:45:18;1.57;;;1.37;;
16407;SDS011;8313;49.894;8.084;2022-11-09T14:48:03;1.30;;;1.20;;
16407;SDS011;8313;49.894;8.084;2022-11-09T14:50:47;1.60;;;1.33;;
16407;SDS011;8313;49.894;8.084;2022-11-09T14:53:35;1.20;;;1.10;;
16407;SDS011;8313;49.894;8.084;2022-11-09T14:56:20;1.80;;;1.40;;
16407;SDS011;8313;49.894;8.084;2022-11-09T14:59:06;2.40;;;1.63;;
16407;SDS011;8313;49.894;8.084;2022-11-09T15:02:14;4.90;;;1.50;;
16407;SDS011;8313;49.894;8.084;2022-11-09T15:05:01;4.10;;;3.40;;
16407;SDS011;8313;49.894;8.084;2022-11-09T15:07:47;20.70;;;10.57;;
16407;SDS011;8313;49.894;8.084;2022-11-09T15:10:32;19.83;;;11.47;;
16407;SDS011;8313;49.894;8.084;2022-11-09T15:13:17;18.00;;;10.30;;
16407;SDS011;8313;49.894;8.084;2022-11-09T15:16:03;24.40;;;13.07;;
16407;SDS011;8313;49.894;8.084;2022-11-09T15:18:48;25.03;;;13.63;;
16407;SDS011;8313;49.894;8.084;2022-11-09T15:21:35;26.47;;;14.50;;
16407;SDS011;8313;49.894;8.084;2022-11-09T15:24:24;12.27;;;6.27;;
16407;SDS011;8313;49.894;8.084;2022-11-09T15:27:30;80.33;;;38.70;;
16407;SDS011;8313;49.894;8.084;2022-11-09T15:30:30;49.63;;;26.97;;
16407;SDS011;8313;49.894;8.084;2022-11-09T15:39:22;72.57;;;33.57;;
16407;SDS011;8313;49.894;8.084;2022-11-09T15:42:01;42.80;;;25.37;;
16407;SDS011;8313;49.894;8.084;2022-11-09T15:44:49;35.53;;;21.07;;
16407;SDS011;8313;49.894;8.084;2022-11-09T15:47:37;36.20;;;22.03;;
16407;SDS011;8313;49.894;8.084;2022-11-09T15:50:23;35.90;;;22.80;;
16407;SDS011;8313;49.894;8.084;2022-11-09T15:53:10;17.17;;;11.37;;
16407;SDS011;8313;49.894;8.084;2022-11-09T15:55:55;4.70;;;4.30;;
16407;SDS011;8313;49.894;8.084;2022-11-09T15:58:39;2.87;;;2.67;;
16407;SDS011;8313;49.894;8.084;2022-11-09T16:01:24;6.20;;;1.90;;
16407;SDS011;8313;49.894;8.084;2022-11-09T16:04:08;2.37;;;1.43;;
16407;SDS011;8313;49.894;8.084;2022-11-09T16:06:52;1.20;;;1.10;;
16407;SDS011;8313;49.894;8.084;2022-11-09T16:09:40;2.40;;;1.50;;
16407;SDS011;8313;49.894;8.084;2022-11-09T16:12:25;1.30;;;1.20;;
16407;SDS011;8313;49.894;8.084;2022-11-09T16:15:09;37.97;;;22.97;;
16407;SDS011;8313;49.894;8.084;2022-11-09T16:17:54;34.23;;;21.57;;
16407;SDS011;8313;49.894;8.084;2022-11-09T16:20:38;14.60;;;9.10;;
16407;SDS011;8313;49.894;8.084;2022-11-09T16:23:23;6.47;;;5.77;;
16407;SDS011;8313;49.894;8.084;2022-11-09T16:26:11;8.00;;;4.83;;
16407;SDS011;8313;49.894;8.084;2022-11-09T16:28:57;3.83;;;2.70;;
16407;SDS011;8313;49.894;8.084;2022-11-09T16:31:42;3.40;;;1.87;;
16407;SDS011;8313;49.894;8.084;2022-11-09T16:34:27;1.70;;;1.60;;
16407;SDS011;8313;49.894;8.084;2022-11-09T16:37:11;4.70;;;2.10;;
16407;SDS011;8313;49.894;8.084;2022-11-09T16:39:56;2.60;;;2.07;;
16407;SDS011;8313;49.894;8.084;2022-11-09T16:42:42;2.10;;;1.90;;
16407;SDS011;8313;49.894;8.084;2022-11-09T16:45:26;2.13;;;1.90;;
16407;SDS011;8313;49.894;8.084;2022-11-09T16:48:10;9.30;;;1.90;;
16407;SDS011;8313;49.894;8.084;2022-11-09T16:50:56;1.83;;;1.63;;
16407;SDS011;8313;49.894;8.084;2022-11-09T16:53:41;3.60;;;1.70;;
16407;SDS011;8313;49.894;8.084;2022-11-09T16:56:25;2.70;;;1.80;;
16407;SDS011;8313;49.894;8.084;2022-11-09T16:59:09;3.00;;;2.10;;
16407;SDS011;8313;49.894;8.084;2022-11-09T17:01:55;3.40;;;1.90;;
16407;SDS011;8313;49.894;8.084;2022-11-09T17:04:40;2.93;;;1.57;;
16407;SDS011;8313;49.894;8.084;2022-11-09T17:07:25;2.50;;;1.53;;
16407;SDS011;8313;49.894;8.084;2022-11-09T17:10:09;3.50;;;2.80;;
16407;SDS011;8313;49.894;8.084;2022-11-09T17:12:54;2.07;;;1.93;;
16407;SDS011;8313;49.894;8.084;2022-11-09T17:15:42;3.30;;;2.40;;
16407;SDS011;8313;49.894;8.084;2022-11-09T17:18:28;2.60;;;2.40;;
16407;SDS011;8313;49.894;8.084;2022-11-09T17:21:12;4.60;;;2.80;;
16407;SDS011;8313;49.894;8.084;2022-11-09T17:23:57;5.23;;;3.00;;
16407;SDS011;8313;49.894;8.084;2022-11-09T17:26:41;4.90;;;2.63;;
16407;SDS011;8313;49.894;8.084;2022-11-09T17:29:26;3.50;;;2.80;;
16407;SDS011;8313;49.894;8.084;2022-11-09T17:32:10;6.80;;;5.80;;
16407;SDS011;8313;49.894;8.084;2022-11-09T17:34:54;15.93;;;9.83;;
16407;SDS011;8313;49.894;8.084;2022-11-09T17:37:38;13.70;;;9.37;;
16407;SDS011;8313;49.894;8.084;2022-11-09T17:40:23;6.83;;;6.10;;
16407;SDS011;8313;49.894;8.084;2022-11-09T17:43:08;7.67;;;6.53;;
16407;SDS011;8313;49.894;8.084;2022-11-09T17:45:52;23.30;;;14.53;;
16407;SDS011;8313;49.894;8.084;2022-11-09T17:48:37;29.57;;;22.23;;
16407;SDS011;8313;49.894;8.084;2022-11-09T17:51:22;12.63;;;9.00;;
16407;SDS011;8313;49.894;8.084;2022-11-09T17:54:08;7.17;;;6.10;;
16407;SDS011;8313;49.894;8.084;2022-11-09T17:56:52;5.97;;;4.60;;
16407;SDS011;8313;49.894;8.084;2022-11-09T17:59:36;5.77;;;4.50;;
16407;SDS011;8313;49.894;8.084;2022-11-09T18:02:21;3.97;;;2.93;;